createdAt,value
2018-04-06T00:02:05.072Z,8.64
2018-04-06T00:04:33.988Z,8.62
2018-04-06T00:07:02.951Z,8.57
2018-04-06T00:09:32.519Z,8.56
2018-04-06T00:12:03.090Z,8.54
2018-04-06T00:14:31.984Z,8.51
2018-04-06T00:17:01.268Z,8.49
2018-04-06T00:19:30.170Z,8.51
2018-04-06T00:21:59.113Z,8.52
2018-04-06T00:24:28.493Z,8.52
2018-04-06T00:26:57.390Z,8.52
2018-04-06T00:29:26.259Z,8.51
2018-04-06T00:31:55.719Z,8.47
2018-04-06T00:34:25.610Z,8.48
2018-04-06T00:36:54.839Z,8.49
2018-04-06T00:39:25.476Z,8.49
2018-04-06T00:41:55.080Z,8.48
2018-04-06T00:44:23.931Z,8.48
2018-04-06T00:46:52.776Z,8.49
2018-04-06T00:49:21.670Z,8.48
2018-04-06T00:51:50.897Z,8.46
2018-04-06T00:54:19.880Z,8.44
2018-04-06T00:56:48.831Z,8.42
2018-04-06T00:59:18.231Z,8.42
2018-04-06T01:01:47.209Z,8.39
2018-04-06T01:04:16.096Z,8.36
2018-04-06T01:06:45.441Z,8.32
2018-04-06T01:09:14.434Z,8.39
2018-04-06T01:11:43.392Z,8.36
2018-04-06T01:14:12.741Z,8.29
2018-04-06T01:16:41.644Z,8.25
2018-04-06T01:19:10.840Z,8.22
2018-04-06T01:21:40.019Z,8.19
2018-04-06T01:24:08.868Z,8.14
2018-04-06T01:26:37.790Z,8.14
2018-04-06T01:29:06.656Z,8.12
2018-04-06T01:31:35.588Z,8.08
2018-04-06T01:34:05.363Z,8.05
2018-04-06T01:36:34.428Z,8.04
2018-04-06T01:39:03.375Z,8.03
2018-04-06T01:41:32.637Z,8.03
2018-04-06T01:44:01.544Z,8.01
2018-04-06T01:46:30.382Z,8.05
2018-04-06T01:48:59.603Z,8.02
2018-04-06T01:51:28.351Z,8.01
2018-04-06T01:53:57.047Z,7.99
2018-04-06T01:56:26.190Z,7.96
2018-04-06T01:58:54.876Z,7.94
2018-04-06T02:01:23.575Z,7.93
2018-04-06T02:03:52.924Z,7.97
2018-04-06T02:06:21.790Z,7.94
2018-04-06T02:08:50.635Z,7.92
2018-04-06T02:11:20.020Z,7.93
2018-04-06T02:13:48.875Z,7.91
2018-04-06T02:16:17.731Z,7.91
2018-04-06T02:18:46.973Z,7.88
2018-04-06T02:21:15.812Z,7.85
2018-04-06T02:23:44.575Z,7.83
2018-04-06T02:26:13.955Z,7.81
2018-04-06T02:28:42.650Z,7.78
2018-04-06T02:31:11.355Z,7.75
2018-04-06T02:33:40.839Z,7.76
2018-04-06T02:36:09.583Z,7.76
2018-04-06T02:38:38.335Z,7.74
2018-04-06T02:41:07.482Z,7.71
2018-04-06T02:43:36.315Z,7.73
2018-04-06T02:46:05.579Z,7.71
2018-04-06T02:48:34.831Z,7.66
2018-04-06T02:51:03.565Z,7.64
2018-04-06T02:53:32.281Z,7.63
2018-04-06T02:56:01.360Z,7.60
2018-04-06T02:58:30.133Z,7.59
2018-04-06T03:00:58.840Z,7.57
2018-04-06T03:03:28.039Z,7.53
2018-04-06T03:05:56.755Z,7.49
2018-04-06T03:08:25.446Z,7.48
2018-04-06T03:10:54.588Z,7.45
2018-04-06T03:13:23.276Z,7.43
2018-04-06T03:15:52.018Z,7.41
2018-04-06T03:18:21.038Z,7.41
2018-04-06T03:20:49.702Z,7.36
2018-04-06T03:23:18.562Z,7.36
2018-04-06T03:25:47.705Z,7.35
2018-04-06T03:28:16.409Z,7.34
2018-04-06T03:30:45.090Z,7.33
2018-04-06T03:33:14.228Z,7.35
2018-04-06T03:35:42.935Z,7.34
2018-04-06T03:38:11.631Z,7.31
2018-04-06T03:40:40.936Z,7.28
2018-04-06T03:43:09.663Z,7.28
2018-04-06T03:45:38.376Z,7.26
2018-04-06T03:48:07.525Z,7.26
2018-04-06T03:50:36.364Z,7.25
2018-04-06T03:53:05.105Z,7.26
2018-04-06T03:55:35.466Z,7.22
2018-04-06T03:58:04.815Z,7.20
2018-04-06T04:00:33.551Z,7.21
2018-04-06T04:03:02.757Z,7.19
2018-04-06T04:05:31.466Z,7.19
2018-04-06T04:08:00.228Z,7.19
2018-04-06T04:10:29.302Z,7.18
2018-04-06T04:12:58.048Z,7.15
2018-04-06T04:15:26.778Z,7.18
2018-04-06T04:17:55.936Z,7.21
2018-04-06T04:20:24.663Z,7.22
2018-04-06T04:22:53.380Z,7.19
2018-04-06T04:25:22.454Z,7.16
2018-04-06T04:27:51.165Z,7.13
2018-04-06T04:30:19.886Z,7.10
2018-04-06T04:35:16.523Z,7.04
2018-04-06T04:37:45.232Z,7.06
2018-04-06T04:40:15.441Z,7.08
2018-04-06T04:42:44.155Z,7.14
2018-04-06T04:45:43.327Z,7.18
2018-04-06T04:48:12.448Z,7.18
2018-04-06T04:50:41.220Z,7.18
2018-04-06T04:53:09.915Z,7.18
2018-04-06T04:55:39.079Z,7.17
2018-04-06T04:58:07.843Z,7.18
2018-04-06T05:00:36.626Z,7.16
2018-04-06T05:03:05.663Z,7.19
2018-04-06T05:05:34.413Z,7.21
2018-04-06T05:08:03.651Z,7.23
2018-04-06T05:10:32.896Z,7.29
2018-04-06T05:13:01.914Z,7.33
2018-04-06T05:17:54.534Z,7.35
2018-04-06T05:20:23.258Z,7.38
2018-04-06T05:22:52.011Z,7.49
2018-04-06T05:25:21.047Z,7.50
2018-04-06T05:27:49.990Z,7.52
2018-04-06T05:30:18.835Z,7.55
2018-04-06T05:32:47.643Z,7.58
2018-04-06T05:35:16.422Z,7.64
2018-04-06T05:37:45.400Z,7.67
2018-04-06T05:40:14.595Z,7.73
2018-04-06T05:42:43.311Z,7.80
2018-04-06T05:45:12.051Z,7.82
2018-04-06T05:47:41.369Z,7.82
2018-04-06T05:50:10.097Z,7.86
2018-04-06T05:52:38.915Z,7.88
2018-04-06T05:55:07.911Z,7.97
2018-04-06T05:57:36.645Z,8.01
2018-04-06T06:00:06.418Z,8.03
2018-04-06T06:02:35.454Z,8.12
2018-04-06T06:05:04.364Z,8.20
2018-04-06T06:07:33.419Z,8.25
2018-04-06T06:10:03.640Z,8.35
2018-04-06T06:12:32.366Z,8.43
2018-04-06T06:15:01.720Z,8.50
2018-04-06T06:17:30.965Z,8.60
2018-04-06T06:19:59.710Z,8.71
2018-04-06T06:22:28.498Z,8.74
2018-04-06T06:25:00.506Z,8.80
2018-04-06T06:27:29.321Z,8.77
2018-04-06T06:29:58.006Z,8.78
2018-04-06T06:32:27.140Z,8.82
2018-04-06T06:34:55.816Z,8.85
2018-04-06T06:37:24.566Z,8.93
2018-04-06T06:39:53.466Z,8.96
2018-04-06T06:42:22.215Z,9.01
2018-04-06T06:44:51.081Z,9.01
2018-04-06T06:47:20.171Z,9.08
2018-04-06T06:49:48.933Z,9.19
2018-04-06T06:52:17.740Z,9.28
2018-04-06T06:54:46.507Z,9.34
2018-04-06T06:57:15.224Z,9.41
2018-04-06T06:59:45.321Z,9.50
2018-04-06T07:02:14.293Z,9.58
2018-04-06T07:04:43.691Z,9.67
2018-04-06T07:07:13.044Z,9.70
2018-04-06T07:09:42.118Z,9.74
2018-04-06T07:12:10.859Z,9.71
2018-04-06T07:14:40.366Z,9.70
2018-04-06T07:17:09.310Z,9.68
2018-04-06T07:19:38.126Z,9.73
2018-04-06T07:22:07.043Z,9.77
2018-04-06T07:24:35.925Z,9.81
2018-04-06T07:27:04.745Z,9.93
2018-04-06T07:29:33.840Z,9.86
2018-04-06T07:32:03.201Z,9.97
2018-04-06T07:34:31.946Z,10.02
2018-04-06T07:37:01.290Z,10.05
2018-04-06T07:39:30.159Z,10.00
2018-04-06T07:41:59.599Z,9.99
2018-04-06T07:44:28.358Z,10.04
2018-04-06T07:46:57.120Z,10.04
2018-04-06T07:49:26.331Z,10.01
2018-04-06T07:51:55.034Z,10.10
2018-04-06T07:54:23.726Z,10.19
2018-04-06T07:56:54.227Z,10.25
2018-04-06T07:59:22.990Z,10.34
2018-04-06T08:01:53.472Z,10.45
2018-04-06T08:04:22.220Z,10.56
2018-04-06T08:06:51.231Z,10.69
2018-04-06T08:09:19.978Z,10.76
2018-04-06T08:11:48.755Z,10.82
2018-04-06T08:14:17.781Z,10.93
2018-04-06T08:16:46.582Z,11.03
2018-04-06T08:19:15.311Z,11.10
2018-04-06T08:21:45.007Z,11.21
2018-04-06T08:24:14.160Z,11.26
2018-04-06T08:26:42.927Z,11.16
2018-04-06T08:29:11.638Z,11.25
2018-04-06T08:31:41.356Z,11.28
2018-04-06T08:34:10.270Z,11.39
2018-04-06T08:36:39.161Z,11.49
2018-04-06T08:39:08.467Z,11.53
2018-04-06T08:41:37.478Z,11.66
2018-04-06T08:44:06.593Z,11.67
2018-04-06T08:46:35.562Z,11.82
2018-04-06T08:49:04.514Z,11.89
2018-04-06T08:51:33.387Z,11.94
2018-04-06T08:54:03.265Z,11.94
2018-04-06T08:56:32.127Z,12.03
2018-04-06T08:59:01.171Z,12.07
2018-04-06T09:01:30.106Z,12.08
2018-04-06T09:03:59.073Z,12.22
2018-04-06T09:06:28.302Z,12.43
2018-04-06T09:08:57.302Z,12.65
2018-04-06T09:11:26.213Z,12.81
2018-04-06T09:13:55.599Z,13.00
2018-04-06T09:16:24.646Z,13.11
2018-04-06T09:18:54.385Z,13.15
2018-04-06T09:21:23.596Z,13.23
2018-04-06T09:23:52.693Z,13.50
2018-04-06T09:26:21.661Z,13.80
2018-04-06T09:28:50.673Z,13.94
2018-04-06T09:31:19.624Z,14.04
2018-04-06T09:33:48.974Z,14.37
2018-04-06T09:36:18.370Z,14.54
2018-04-06T09:38:48.349Z,14.71
2018-04-06T09:41:18.443Z,14.76
2018-04-06T09:43:48.717Z,14.98
2018-04-06T09:46:18.453Z,15.29
2018-04-06T09:48:49.379Z,15.51
2018-04-06T09:51:18.997Z,15.66
2018-04-06T09:53:48.758Z,15.83
2018-04-06T09:56:18.858Z,15.87
2018-04-06T09:58:48.190Z,16.22
2018-04-06T10:01:17.232Z,16.02
2018-04-06T10:03:46.429Z,16.50
2018-04-06T10:06:15.796Z,16.61
2018-04-06T10:08:45.956Z,16.85
2018-04-06T10:11:15.726Z,16.98
2018-04-06T10:13:45.185Z,16.93
2018-04-06T10:16:15.197Z,17.19
2018-04-06T10:18:45.098Z,17.58
2018-04-06T10:21:14.685Z,17.95
2018-04-06T10:23:44.141Z,18.20
2018-04-06T10:26:14.136Z,18.33
2018-04-06T10:28:43.943Z,18.51
2018-04-06T10:31:13.738Z,18.69
2018-04-06T10:33:43.239Z,18.98
2018-04-06T10:36:12.705Z,19.31
2018-04-06T10:38:42.253Z,19.62
2018-04-06T10:41:11.654Z,19.69
2018-04-06T10:43:40.654Z,19.99
2018-04-06T10:46:10.736Z,20.50
2018-04-06T10:48:40.386Z,20.89
2018-04-06T10:51:10.171Z,20.92
2018-04-06T10:53:40.269Z,20.89
2018-04-06T10:56:10.007Z,20.97
2018-04-06T10:58:39.994Z,21.12
2018-04-06T11:01:09.723Z,21.62
2018-04-06T11:03:39.606Z,21.62
2018-04-06T11:06:09.049Z,21.84
2018-04-06T11:08:39.010Z,21.64
2018-04-06T11:11:08.640Z,21.90
2018-04-06T11:13:38.698Z,22.42
2018-04-06T11:16:07.776Z,22.74
2018-04-06T11:18:37.197Z,23.20
2018-04-06T11:21:07.259Z,22.58
2018-04-06T11:23:37.214Z,22.90
2018-04-06T11:26:06.966Z,23.08
2018-04-06T11:28:37.231Z,23.71
2018-04-06T11:31:07.005Z,23.64
2018-04-06T11:33:37.346Z,23.70
2018-04-06T11:36:07.075Z,23.76
2018-04-06T11:38:36.820Z,23.50
2018-04-06T11:41:06.550Z,24.09
2018-04-06T11:43:35.950Z,23.99
2018-04-06T11:46:05.992Z,23.90
2018-04-06T11:48:35.745Z,23.83
2018-04-06T11:51:05.298Z,24.15
2018-04-06T11:53:35.119Z,24.42
2018-04-06T11:56:06.431Z,24.53
2018-04-06T11:58:35.950Z,24.62
2018-04-06T12:01:05.001Z,24.59
2018-04-06T12:03:34.207Z,24.35
2018-04-06T12:06:04.524Z,24.79
2018-04-06T12:08:33.392Z,25.21
2018-04-06T12:11:02.692Z,25.50
2018-04-06T12:13:31.586Z,25.44
2018-04-06T12:16:00.484Z,25.63
2018-04-06T12:18:29.385Z,25.88
2018-04-06T12:20:58.359Z,25.85
2018-04-06T12:23:27.574Z,25.79
2018-04-06T12:25:56.569Z,25.55
2018-04-06T12:28:25.565Z,25.91
2018-04-06T12:30:54.925Z,26.06
2018-04-06T12:33:23.831Z,26.30
2018-04-06T12:35:52.920Z,25.81
2018-04-06T12:38:22.117Z,25.71
2018-04-06T12:40:51.036Z,25.92
2018-04-06T12:43:19.933Z,26.00
2018-04-06T12:45:49.137Z,26.23
2018-04-06T12:48:18.032Z,26.03
2018-04-06T12:50:46.965Z,26.11
2018-04-06T12:53:16.238Z,26.49
2018-04-06T12:55:45.142Z,26.73
2018-04-06T12:58:14.099Z,26.44
2018-04-06T13:00:43.079Z,26.34
2018-04-06T13:03:12.103Z,26.88
2018-04-06T13:05:41.502Z,27.17
2018-04-06T13:08:10.474Z,26.74
2018-04-06T13:10:39.397Z,26.77
2018-04-06T13:13:08.651Z,26.71
2018-04-06T13:15:37.789Z,27.21
2018-04-06T13:18:06.962Z,27.52
2018-04-06T13:20:36.519Z,27.95
2018-04-06T13:23:06.225Z,27.81
2018-04-06T13:25:36.079Z,27.54
2018-04-06T13:28:06.973Z,27.87
2018-04-06T13:30:36.795Z,28.23
2018-04-06T13:33:06.650Z,28.62
2018-04-06T13:35:36.204Z,28.32
2018-04-06T13:38:06.426Z,28.66
2018-04-06T13:40:36.087Z,28.85
2018-04-06T13:43:05.571Z,29.02
2018-04-06T13:45:35.548Z,29.30
2018-04-06T13:48:06.727Z,29.27
2018-04-06T13:50:36.351Z,29.18
2018-04-06T13:53:06.077Z,29.17
2018-04-06T13:55:36.087Z,29.74
2018-04-06T13:58:07.033Z,29.79
2018-04-06T14:00:36.966Z,29.54
2018-04-06T14:03:06.705Z,29.96
2018-04-06T14:05:36.247Z,30.11
2018-04-06T14:08:06.547Z,30.51
2018-04-06T14:10:36.348Z,30.88
2018-04-06T14:13:06.221Z,30.63
2018-04-06T14:15:36.006Z,30.73
2018-04-06T14:18:06.395Z,31.14
2018-04-06T14:20:36.267Z,30.90
2018-04-06T14:23:06.408Z,31.32
2018-04-06T14:25:36.488Z,31.13
2018-04-06T14:28:07.118Z,31.72
2018-04-06T14:30:37.435Z,31.08
2018-04-06T14:33:07.176Z,30.13
2018-04-06T14:35:36.967Z,30.40
2018-04-06T14:38:07.393Z,30.96
2018-04-06T14:40:36.959Z,30.28
2018-04-06T14:43:06.902Z,30.59
2018-04-06T14:45:36.643Z,30.31
2018-04-06T14:48:06.986Z,30.37
2018-04-06T14:50:36.448Z,30.45
2018-04-06T14:53:06.305Z,30.63
2018-04-06T14:55:36.196Z,31.05
2018-04-06T14:58:07.843Z,31.37
2018-04-06T15:00:37.490Z,30.99
2018-04-06T15:03:07.282Z,30.79
2018-04-06T15:05:37.474Z,31.38
2018-04-06T15:08:07.315Z,31.56
2018-04-06T15:10:37.190Z,31.07
2018-04-06T15:13:07.244Z,31.26
2018-04-06T15:15:36.606Z,31.07
2018-04-06T15:18:06.369Z,31.51
2018-04-06T15:20:36.532Z,32.07
2018-04-06T15:23:05.934Z,32.13
2018-04-06T15:25:35.773Z,31.51
2018-04-06T15:28:07.098Z,30.18
2018-04-06T15:30:36.686Z,29.98
2018-04-06T15:33:06.852Z,30.20
2018-04-06T15:35:36.574Z,29.94
2018-04-06T15:38:07.884Z,30.46
2018-04-06T15:40:38.070Z,30.39
2018-04-06T15:43:08.803Z,30.01
2018-04-06T15:45:39.034Z,30.10
2018-04-06T15:48:08.922Z,29.95
2018-04-06T15:50:38.712Z,29.53
2018-04-06T15:53:08.158Z,28.60
2018-04-06T15:55:38.541Z,28.66
2018-04-06T15:58:08.176Z,28.75
2018-04-06T16:00:38.109Z,28.65
2018-04-06T16:03:07.905Z,28.68
2018-04-06T16:05:37.697Z,28.30
2018-04-06T16:08:07.584Z,28.28
2018-04-06T16:10:37.046Z,28.04
2018-04-06T16:13:06.904Z,26.85
2018-04-06T16:15:37.299Z,26.96
2018-04-06T16:18:07.195Z,26.95
2018-04-06T16:20:37.289Z,27.00
2018-04-06T16:23:07.218Z,26.55
2018-04-06T16:25:36.581Z,26.59
2018-04-06T16:28:06.764Z,26.06
2018-04-06T16:30:36.726Z,25.56
2018-04-06T16:33:06.087Z,25.23
2018-04-06T16:35:35.698Z,25.43
2018-04-06T16:41:38.192Z,25.08
2018-04-06T16:44:08.753Z,25.05
2018-04-06T16:46:39.298Z,24.89
2018-04-06T16:49:09.037Z,24.42
2018-04-06T16:51:39.348Z,24.05
2018-04-06T16:54:08.415Z,23.85
2018-04-06T16:56:37.949Z,23.50
2018-04-06T16:59:07.848Z,23.01
2018-04-06T17:01:38.644Z,22.57
2018-04-06T17:04:08.342Z,22.13
2018-04-06T17:06:38.566Z,21.81
2018-04-06T17:09:08.232Z,21.59
2018-04-06T17:11:38.049Z,21.40
2018-04-06T17:14:07.642Z,21.20
2018-04-06T17:16:37.577Z,21.04
2018-04-06T17:19:07.638Z,20.86
2018-04-06T17:21:38.132Z,20.71
2018-04-06T17:24:08.023Z,20.48
2018-04-06T17:26:38.451Z,20.35
2018-04-06T17:29:08.371Z,20.26
2018-04-06T17:31:38.147Z,20.18
2018-04-06T17:34:08.140Z,20.10
2018-04-06T17:36:37.762Z,20.04
2018-04-06T17:39:08.135Z,19.94
2018-04-06T17:41:38.786Z,19.82
2018-04-06T17:44:08.220Z,19.77
2018-04-06T17:46:38.532Z,19.58
2018-04-06T17:49:08.676Z,19.51
2018-04-06T17:51:38.295Z,19.49
2018-04-06T17:54:07.841Z,19.37
2018-04-06T17:56:37.236Z,19.26
2018-04-06T17:59:06.206Z,19.17
2018-04-06T18:01:36.533Z,19.17
2018-04-06T18:04:07.182Z,19.17
2018-04-06T18:06:37.124Z,19.09
2018-04-06T18:09:07.404Z,18.95
2018-04-06T18:11:37.314Z,18.90
2018-04-06T18:14:06.914Z,18.85
2018-04-06T18:16:37.276Z,18.81
2018-04-06T18:19:06.835Z,18.76
2018-04-06T18:21:36.650Z,18.74
2018-04-06T18:24:08.069Z,18.67
2018-04-06T18:26:37.925Z,18.60
2018-04-06T18:29:07.840Z,18.55
2018-04-06T18:31:37.744Z,18.50
2018-04-06T18:34:07.384Z,18.38
2018-04-06T18:36:36.977Z,18.38
2018-04-06T18:39:07.591Z,18.32
2018-04-06T18:41:37.964Z,18.26
2018-04-06T18:44:08.465Z,18.22
2018-04-06T18:48:07.041Z,18.16
2018-04-06T18:50:37.172Z,18.07
2018-04-06T18:53:06.614Z,18.00
2018-04-06T18:55:36.383Z,17.91
2018-04-06T18:58:07.213Z,17.88
2018-04-06T19:00:37.242Z,17.82
2018-04-06T19:03:06.226Z,17.76
2018-04-06T19:05:35.526Z,17.73
2018-04-06T19:08:06.891Z,17.69
2018-04-06T19:10:36.464Z,17.61
2018-04-06T19:13:07.794Z,17.57
2018-04-06T19:15:37.534Z,17.56
2018-04-06T19:18:07.224Z,17.53
2018-04-06T19:20:36.515Z,17.46
2018-04-06T19:23:05.765Z,17.39
2018-04-06T19:25:35.953Z,17.36
2018-04-06T19:28:06.391Z,17.33
2018-04-06T19:30:36.050Z,17.30
2018-04-06T19:33:06.603Z,17.22
2018-04-06T19:35:36.537Z,17.21
2018-04-06T19:38:06.955Z,17.18
2018-04-06T19:40:37.347Z,17.14
2018-04-06T19:43:06.814Z,17.10
2018-04-06T19:45:35.719Z,17.04
2018-04-06T19:48:05.670Z,17.04
2018-04-06T19:50:34.824Z,17.04
2018-04-06T19:53:04.568Z,16.99
2018-04-06T19:55:34.700Z,16.97
2018-04-06T19:58:04.968Z,16.92
2018-04-06T20:00:34.366Z,16.87
2018-04-06T20:03:05.304Z,16.85
2018-04-06T20:05:35.418Z,16.80
2018-04-06T20:08:07.768Z,16.75
2018-04-06T20:10:37.901Z,16.66
2018-04-06T20:13:07.546Z,16.56
2018-04-06T20:15:38.171Z,16.50
2018-04-06T20:18:07.314Z,16.45
2018-04-06T20:20:37.211Z,16.38
2018-04-06T20:23:07.141Z,16.32
2018-04-06T20:25:36.871Z,16.34
2018-04-06T20:28:07.401Z,16.29
2018-04-06T20:30:36.926Z,16.26
2018-04-06T20:33:06.673Z,16.25
2018-04-06T20:35:37.219Z,16.24
2018-04-06T20:38:07.753Z,16.21
2018-04-06T20:40:37.760Z,16.18
2018-04-06T20:43:06.997Z,16.15
2018-04-06T20:45:36.808Z,16.13
2018-04-06T20:48:07.006Z,16.12
2018-04-06T20:50:36.642Z,16.12
2018-04-06T20:53:06.392Z,16.11
2018-04-06T20:55:36.937Z,16.07
2018-04-06T20:58:06.930Z,16.03
2018-04-06T21:00:36.689Z,15.98
2018-04-06T21:03:06.381Z,15.99
2018-04-06T21:05:35.571Z,15.98
2018-04-06T21:08:05.467Z,15.91
2018-04-06T21:10:35.714Z,15.87
2018-04-06T21:13:05.943Z,15.81
2018-04-06T21:15:35.585Z,15.80
2018-04-06T21:18:05.942Z,15.78
2018-04-06T21:20:35.654Z,15.81
2018-04-06T21:23:05.211Z,15.79
2018-04-06T21:25:35.175Z,15.80
2018-04-06T21:28:06.030Z,15.78
2018-04-06T21:30:35.614Z,15.71
2018-04-06T21:33:05.778Z,15.71
2018-04-06T21:35:35.661Z,15.67
2018-04-06T21:38:07.324Z,15.64
2018-04-06T21:40:38.080Z,15.60
2018-04-06T21:43:07.184Z,15.56
2018-04-06T21:45:36.788Z,15.55
2018-04-06T21:48:07.650Z,15.56
2018-04-06T21:50:37.648Z,15.53
2018-04-06T21:53:07.512Z,15.49
2018-04-06T21:55:37.880Z,15.42
2018-04-06T21:58:07.694Z,15.37
2018-04-06T22:00:37.528Z,15.28
2018-04-06T22:03:07.099Z,15.28
2018-04-06T22:05:36.981Z,15.27
2018-04-06T22:08:08.961Z,15.26
2018-04-06T22:10:38.614Z,15.20
2018-04-06T22:13:08.125Z,15.14
2018-04-06T22:15:38.447Z,15.12
2018-04-06T22:18:07.977Z,15.12
2018-04-06T22:20:37.757Z,15.11
2018-04-06T22:23:07.101Z,15.09
2018-04-06T22:25:36.819Z,15.11
2018-04-06T22:28:06.895Z,15.10
2018-04-06T22:30:37.896Z,15.08
2018-04-06T22:33:07.266Z,15.04
2018-04-06T22:35:36.879Z,15.05
2018-04-06T22:38:06.781Z,15.02
2018-04-06T22:40:36.255Z,15.03
2018-04-06T22:43:06.053Z,15.01
2018-04-06T22:45:35.450Z,15.00
2018-04-06T22:48:05.604Z,14.93
2018-04-06T22:50:35.747Z,14.90
2018-04-06T22:53:05.053Z,14.83
2018-04-06T22:55:34.527Z,14.82
2018-04-06T22:58:06.292Z,14.76
2018-04-06T23:00:35.561Z,14.77
2018-04-06T23:03:05.148Z,14.76
2018-04-06T23:05:34.382Z,14.74
2018-04-06T23:08:05.350Z,14.67
2018-04-06T23:10:37.318Z,14.61
2018-04-06T23:13:06.721Z,14.55
2018-04-06T23:15:36.604Z,14.52
2018-04-06T23:18:06.791Z,14.51
2018-04-06T23:20:36.720Z,14.47
2018-04-06T23:23:06.142Z,14.48
2018-04-06T23:25:36.043Z,14.46
2018-04-06T23:28:07.365Z,14.46
2018-04-06T23:30:36.769Z,14.42
2018-04-06T23:33:06.274Z,14.39
2018-04-06T23:35:35.475Z,14.41
2018-04-06T23:38:06.101Z,14.35
2018-04-06T23:40:35.325Z,14.35
2018-04-06T23:43:04.510Z,14.35
2018-04-06T23:45:33.489Z,14.33
2018-04-06T23:48:04.239Z,14.30
2018-04-06T23:50:33.253Z,14.28
2018-04-06T23:53:03.132Z,14.23
2018-04-06T23:55:32.082Z,14.21
2018-04-06T23:58:01.146Z,14.18
